Newcastle, Canada
Current Conditions -  °F | °C
As of 10:00 AM on Sunday 25 Jan 2015 (Local Time) from CZBF Reporting Station
Blowing Snow Blowing Snow  
Wind Chill: 17°   Ceiling: 12000
Heat Index: 28°   Visibility: 15mi
Dew Point: 23°   Wind: 14mph
Humidity: 80%   Direction: 260°W
Pressure: 29.02"   Gusts: 23mph
Location:  46.98°N, 65.57°W
Report Text: CZBF 251400Z 26012G20KT 15SM DRSN FEW030 BKN120 M02/M05 A2902 RMK SC1AC6 SLP828
Loading
Personal Weather Stations






























Interactive Weather Map New forecast layout! Learn more

10-Day Weather Forecast

Advertisements
Track Severe Weather on mobile